Time;durP1;ratioP1;P1;durP2;ratioP2;P2;SDS_P1;SDS_P2;PMS_P1;PMS_P2;Temp;Humidity;BMP_temperature;BMP_pressure;BME280_temperature;BME280_humidity;BME280_pressure;Samples;Min_cycle;Max_cycle;Signal;HPM_P1;HPM_P2
2021/09/24 00:01:46;;;;;;;4.77;3.40;;;;;;;22.22;64.69;98285.91;5059101;23;21638;-66
2021/09/24 00:04:13;;;;;;;5.07;3.33;;;;;;;22.37;65.04;98278.63;5013459;28;20210;-65
2021/09/24 00:06:41;;;;;;;8.23;3.60;;;;;;;22.32;64.44;98286.78;5020760;28;20211;-65
2021/09/24 00:09:08;;;;;;;4.53;3.50;;;;;;;22.57;63.66;98291.47;5022420;28;20213;-65
2021/09/24 00:11:36;;;;;;;5.40;3.67;;;;;;;22.52;63.33;98283.28;5024418;28;20207;-65
2021/09/24 00:14:04;;;;;;;6.03;3.57;;;;;;;22.64;63.19;98283.88;5027600;28;20202;-65
2021/09/24 00:16:33;;;;;;;5.73;3.53;;;;;;;22.81;62.54;98282.50;5022458;28;20224;-65
2021/09/24 00:19:01;;;;;;;4.73;3.37;;;;;;;22.55;63.46;98283.56;5024143;28;20203;-66
2021/09/24 00:21:28;;;;;;;6.33;3.47;;;;;;;22.65;63.03;98277.34;5018784;28;20210;-66
2021/09/24 00:23:55;;;;;;;6.57;3.60;;;;;;;22.57;63.01;98265.09;5018993;28;20207;-66
2021/09/24 00:26:23;;;;;;;4.70;3.50;;;;;;;22.43;63.98;98268.56;5025248;28;20681;-66
2021/09/24 00:28:50;;;;;;;4.93;3.90;;;;;;;22.17;65.01;98258.72;5030459;28;20305;-66
2021/09/24 00:31:17;;;;;;;6.33;3.53;;;;;;;22.62;63.47;98262.38;5026739;28;20219;-66
2021/09/24 00:33:46;;;;;;;4.17;3.43;;;;;;;21.91;65.53;98259.75;5010447;28;20200;-66
2021/09/24 00:36:13;;;;;;;4.23;3.63;;;;;;;22.82;62.37;98272.44;5025229;28;20235;-66
2021/09/24 00:38:40;;;;;;;4.13;3.30;;;;;;;22.69;62.94;98268.34;5029997;28;20674;-66
2021/09/24 00:41:09;;;;;;;3.90;3.00;;;;;;;22.72;62.10;98262.38;5026476;28;20667;-66
2021/09/24 00:43:36;;;;;;;4.47;3.67;;;;;;;22.45;62.43;98271.88;5024747;28;20233;-66
2021/09/24 00:46:04;;;;;;;4.07;3.00;;;;;;;22.62;62.92;98269.69;5023524;28;20569;-66
2021/09/24 00:48:32;;;;;;;4.97;3.53;;;;;;;23.07;60.10;98277.84;5022466;28;20210;-66
2021/09/24 00:51:01;;;;;;;6.17;3.30;;;;;;;22.94;60.54;98281.94;5023000;28;20206;-66
2021/09/24 00:53:30;;;;;;;8.60;4.00;;;;;;;23.01;60.31;98285.22;5010902;28;20226;-66
2021/09/24 00:55:57;;;;;;;6.53;4.17;;;;;;;22.64;62.31;98284.66;5023803;28;20227;-66
2021/09/24 00:58:25;;;;;;;7.47;3.87;;;;;;;22.72;61.38;98286.88;5016395;28;20298;-66
2021/09/24 01:00:52;;;;;;;5.47;3.63;;;;;;;22.75;61.01;98290.94;5015692;28;20660;-66
2021/09/24 01:03:19;;;;;;;6.13;3.73;;;;;;;22.28;63.77;98295.72;5023595;28;20239;-66
2021/09/24 01:05:48;;;;;;;7.53;4.17;;;;;;;22.15;63.92;98291.63;5027690;28;20845;-66
2021/09/24 01:08:17;;;;;;;4.20;3.77;;;;;;;22.43;62.95;98284.88;5018383;28;20254;-66
2021/09/24 01:10:44;;;;;;;9.00;4.67;;;;;;;21.97;65.60;98285.84;5021473;28;20218;-66
2021/09/24 01:13:12;;;;;;;5.53;3.87;;;;;;;22.02;65.37;98283.16;5024023;28;20725;-66
2021/09/24 01:15:39;;;;;;;6.13;4.50;;;;;;;22.32;63.70;98288.66;5018698;28;20598;-66
2021/09/24 01:18:06;;;;;;;4.47;3.57;;;;;;;22.36;63.46;98287.06;5019530;28;20230;-66
2021/09/24 01:20:34;;;;;;;6.20;3.90;;;;;;;22.02;64.99;98292.13;5017928;28;20682;-66
2021/09/24 01:23:02;;;;;;;6.57;4.37;;;;;;;22.18;64.03;98291.09;5024314;28;20220;-66
2021/09/24 01:25:30;;;;;;;5.20;3.80;;;;;;;21.63;66.55;98285.41;5022828;28;20566;-66
2021/09/24 01:27:57;;;;;;;5.10;4.00;;;;;;;21.71;66.50;98287.66;5018855;28;20221;-66
2021/09/24 01:30:25;;;;;;;5.47;3.70;;;;;;;21.68;66.65;98292.78;5009554;28;20214;-66
2021/09/24 01:32:53;;;;;;;6.10;3.80;;;;;;;21.55;68.09;98279.66;5016389;28;20219;-66
2021/09/24 01:35:20;;;;;;;6.80;4.63;;;;;;;21.28;68.16;98279.78;5015339;28;20237;-66
2021/09/24 01:37:49;;;;;;;5.80;4.10;;;;;;;21.09;69.06;98280.47;5026773;28;20220;-66
2021/09/24 01:40:19;;;;;;;5.73;3.80;;;;;;;20.81;71.12;98267.19;5020953;28;20222;-66
2021/09/24 01:42:47;;;;;;;6.80;4.47;;;;;;;21.60;67.99;98264.22;5019476;28;20647;-66
2021/09/24 01:45:14;;;;;;;5.37;4.03;;;;;;;21.95;65.79;98277.16;5025636;28;20749;-66
2021/09/24 01:47:42;;;;;;;7.00;4.80;;;;;;;21.21;68.89;98272.94;5018510;28;20210;-66
2021/09/24 01:50:11;;;;;;;5.87;4.23;;;;;;;20.87;71.86;98266.97;5013367;28;20203;-66
2021/09/24 01:52:39;;;;;;;6.97;4.23;;;;;;;21.06;71.44;98262.00;5019885;28;20226;-66
2021/09/24 01:55:08;;;;;;;6.30;4.30;;;;;;;21.15;70.84;98263.97;5017952;28;20686;-66
2021/09/24 01:57:37;;;;;;;5.63;4.13;;;;;;;20.86;71.96;98259.94;5024075;28;20229;-66
2021/09/24 02:00:05;;;;;;;8.57;3.97;;;;;;;20.61;74.11;98256.19;5024136;28;20205;-66
2021/09/24 02:02:32;;;;;;;6.53;3.83;;;;;;;21.09;71.26;98261.47;5011356;28;20244;-66
2021/09/24 02:04:59;;;;;;;4.67;3.80;;;;;;;21.47;69.34;98258.44;5015603;28;20206;-66
2021/09/24 02:07:27;;;;;;;6.97;4.30;;;;;;;21.41;68.78;98256.78;5021740;28;20203;-66
2021/09/24 02:09:54;;;;;;;5.67;4.50;;;;;;;20.57;72.59;98252.38;5020398;28;20206;-67
2021/09/24 02:12:21;;;;;;;7.57;4.40;;;;;;;20.46;74.05;98246.03;5022109;28;20218;-67
2021/09/24 02:14:50;;;;;;;7.53;4.70;;;;;;;20.67;73.40;98250.53;5020757;28;20210;-67
2021/09/24 02:17:17;;;;;;;8.47;4.73;;;;;;;20.80;72.60;98247.41;5014638;28;20234;-67
2021/09/24 02:19:45;;;;;;;5.80;4.33;;;;;;;21.27;69.87;98253.72;5012490;28;20204;-67
2021/09/24 02:22:12;;;;;;;7.53;4.77;;;;;;;21.63;67.88;98252.00;5020535;28;20750;-67
2021/09/24 02:24:39;;;;;;;6.43;4.20;;;;;;;21.64;67.43;98259.06;5020301;28;20209;-67
2021/09/24 02:27:06;;;;;;;7.83;4.53;;;;;;;21.63;67.31;98252.81;5016314;28;20214;-67
2021/09/24 02:29:34;;;;;;;6.60;4.43;;;;;;;21.57;67.69;98258.47;5019332;28;20211;-67
2021/09/24 02:32:02;;;;;;;8.00;4.37;;;;;;;21.45;68.55;98250.56;5019921;28;20219;-67
2021/09/24 02:34:30;;;;;;;7.43;4.40;;;;;;;21.45;69.46;98252.47;5009790;28;20211;-67
2021/09/24 02:36:57;;;;;;;5.70;4.33;;;;;;;21.38;69.17;98249.97;5016322;28;20223;-67
2021/09/24 02:39:25;;;;;;;6.33;4.30;;;;;;;21.48;68.82;98257.38;5010138;28;20576;-67
2021/09/24 02:41:52;;;;;;;7.50;4.90;;;;;;;21.38;68.61;98251.88;5025216;28;20219;-67
2021/09/24 02:44:19;;;;;;;7.07;4.63;;;;;;;21.70;68.16;98241.75;5014525;28;20220;-67
2021/09/24 02:46:47;;;;;;;6.50;4.27;;;;;;;21.84;67.02;98242.88;5016457;28;20213;-67
2021/09/24 02:49:15;;;;;;;6.37;5.00;;;;;;;21.74;66.41;98243.66;5021617;28;20212;-67
2021/09/24 02:51:42;;;;;;;6.07;4.50;;;;;;;21.77;67.01;98245.84;5022982;28;20225;-67
2021/09/24 02:54:10;;;;;;;6.77;4.67;;;;;;;21.77;66.92;98239.56;5020860;28;20203;-67
2021/09/24 02:56:37;;;;;;;8.70;4.80;;;;;;;21.50;68.13;98244.34;5019498;28;20552;-67
2021/09/24 02:59:04;;;;;;;6.37;4.30;;;;;;;21.34;68.44;98246.13;5016778;28;20215;-67
2021/09/24 03:01:34;;;;;;;8.13;4.60;;;;;;;21.62;68.24;98244.91;5008129;28;20204;-67
2021/09/24 03:04:01;;;;;;;9.27;4.73;;;;;;;21.83;67.04;98249.41;5011796;28;20202;-66
2021/09/24 03:06:30;;;;;;;6.70;4.67;;;;;;;21.80;67.44;98239.06;5016989;28;20199;-67
2021/09/24 03:08:57;;;;;;;6.03;3.97;;;;;;;21.93;66.55;98233.13;5011704;28;20208;-68
2021/09/24 03:11:24;;;;;;;6.23;4.43;;;;;;;21.99;66.16;98240.22;5019719;28;20203;-66
2021/09/24 03:13:51;;;;;;;7.20;4.70;;;;;;;21.53;67.70;98241.09;5023350;28;20203;-66
2021/09/24 03:16:20;;;;;;;7.20;5.10;;;;;;;21.61;67.72;98246.84;5020673;28;20226;-66
2021/09/24 03:18:48;;;;;;;8.27;4.80;;;;;;;22.00;66.19;98241.84;5017530;28;20207;-66
2021/09/24 03:21:15;;;;;;;5.40;4.27;;;;;;;21.77;66.90;98234.16;5017985;28;20203;-66
2021/09/24 03:23:44;;;;;;;7.27;4.63;;;;;;;21.73;67.92;98224.91;5021395;28;20235;-66
2021/09/24 03:26:11;;;;;;;7.63;4.73;;;;;;;22.03;66.77;98224.97;5029265;28;20206;-66
2021/09/24 03:28:38;;;;;;;8.83;5.00;;;;;;;21.70;67.88;98225.44;5029816;28;20203;-66
2021/09/24 03:31:06;;;;;;;6.17;4.43;;;;;;;22.29;65.42;98232.13;5029091;28;20210;-66
2021/09/24 03:33:33;;;;;;;7.00;4.77;;;;;;;21.36;68.66;98229.59;5019320;28;20231;-66
2021/09/24 03:36:00;;;;;;;7.40;4.27;;;;;;;22.19;65.52;98238.34;5024867;28;20221;-66
2021/09/24 03:38:28;;;;;;;9.70;4.53;;;;;;;21.45;68.18;98238.88;5022227;28;20204;-66
2021/09/24 03:40:57;;;;;;;6.57;4.13;;;;;;;21.76;67.08;98232.53;5027941;28;20211;-66
2021/09/24 03:43:24;;;;;;;5.70;4.33;;;;;;;21.59;66.35;98248.97;5016497;28;20693;-66
2021/09/24 03:45:52;;;;;;;9.57;4.57;;;;;;;21.65;66.60;98241.69;5020348;28;20230;-66
2021/09/24 03:48:19;;;;;;;7.03;4.30;;;;;;;21.67;66.73;98236.78;5020759;28;20215;-66
2021/09/24 03:50:46;;;;;;;7.53;4.47;;;;;;;21.74;66.07;98230.06;5020902;28;20550;-66
2021/09/24 03:53:14;;;;;;;6.27;4.70;;;;;;;22.12;64.82;98235.06;5027587;28;20231;-66
2021/09/24 03:55:41;;;;;;;6.77;4.20;;;;;;;21.70;65.47;98230.88;5022537;28;20210;-66
2021/09/24 03:58:10;;;;;;;7.43;4.37;;;;;;;22.00;64.92;98236.41;5028202;28;20237;-66
2021/09/24 04:00:37;;;;;;;6.93;4.40;;;;;;;21.93;65.02;98225.78;5021142;28;20233;-66
2021/09/24 04:03:04;;;;;;;6.87;4.20;;;;;;;21.78;64.63;98233.09;5022626;28;20234;-66
2021/09/24 04:05:31;;;;;;;8.77;4.63;;;;;;;21.93;64.67;98231.22;5023973;28;20214;-67
2021/09/24 04:07:59;;;;;;;5.60;4.13;;;;;;;21.92;64.31;98235.03;5021512;28;20214;-66
2021/09/24 04:10:26;;;;;;;10.40;4.93;;;;;;;21.73;65.88;98233.06;5013787;28;20207;-66
2021/09/24 04:12:53;;;;;;;6.87;5.37;;;;;;;21.53;66.56;98239.19;5019220;28;20239;-67
2021/09/24 04:15:22;;;;;;;6.07;4.43;;;;;;;21.57;66.31;98240.28;5033899;28;20207;-79
2021/09/24 04:17:49;;;;;;;4.93;4.13;;;;;;;21.59;66.60;98240.84;5029293;28;20225;-82
2021/09/24 04:20:17;;;;;;;7.07;5.07;;;;;;;20.29;71.58;98242.63;5037789;28;20203;-81
2021/09/24 04:22:44;;;;;;;6.83;4.50;;;;;;;21.39;68.42;98240.75;5028132;28;20709;-79
2021/09/24 04:25:12;;;;;;;8.97;5.13;;;;;;;21.56;66.73;98241.38;5020991;28;20213;-77
2021/09/24 04:27:39;;;;;;;5.47;4.50;;;;;;;21.39;67.43;98239.94;5026629;28;20215;-78
2021/09/24 04:30:08;;;;;;;9.03;5.10;;;;;;;21.57;66.38;98255.75;5034890;28;20225;-79
2021/09/24 04:32:37;;;;;;;7.83;4.87;;;;;;;21.41;66.94;98252.16;5024558;28;20311;-78
2021/09/24 04:35:04;;;;;;;10.00;5.30;;;;;;;21.49;66.48;98257.09;5028328;28;20300;-78
2021/09/24 04:37:32;;;;;;;7.80;4.87;;;;;;;21.42;66.40;98252.97;5029539;28;20716;-76
2021/09/24 04:39:59;;;;;;;7.10;5.20;;;;;;;21.43;66.70;98254.63;5024211;28;20206;-65
2021/09/24 04:42:27;;;;;;;8.57;5.03;;;;;;;21.54;66.02;98246.25;5019031;28;20221;-69
2021/09/24 04:44:54;;;;;;;9.20;5.03;;;;;;;21.42;67.43;98245.66;5018315;28;20202;-65
2021/09/24 04:47:21;;;;;;;7.33;4.97;;;;;;;21.47;66.26;98242.97;5014478;28;20202;-70
2021/09/24 04:49:50;;;;;;;8.23;5.30;;;;;;;21.40;66.51;98239.69;5014330;28;20206;-67
2021/09/24 04:52:17;;;;;;;9.07;5.07;;;;;;;21.36;66.94;98245.88;5020196;28;20235;-68
2021/09/24 04:54:45;;;;;;;6.50;5.23;;;;;;;21.01;69.18;98242.97;5027642;28;20206;-67
2021/09/24 04:57:12;;;;;;;11.57;5.20;;;;;;;21.21;68.11;98243.09;5028382;28;20233;-67
2021/09/24 04:59:39;;;;;;;8.50;5.27;;;;;;;21.28;68.68;98244.50;5014784;28;20213;-73
2021/09/24 05:02:07;;;;;;;10.03;5.10;;;;;;;20.79;71.58;98243.06;5021982;28;20240;-74
2021/09/24 05:04:34;;;;;;;7.97;5.20;;;;;;;21.07;69.22;98244.66;5016255;28;20677;-67
2021/09/24 05:07:03;;;;;;;9.57;5.93;;;;;;;21.44;69.11;98242.69;5021798;28;20202;-67
2021/09/24 05:09:30;;;;;;;9.30;5.70;;;;;;;21.37;69.00;98247.50;5032293;28;20212;-67
2021/09/24 05:11:57;;;;;;;10.17;5.90;;;;;;;21.18;68.84;98246.34;5022229;28;20230;-66
2021/09/24 05:14:25;;;;;;;9.03;5.50;;;;;;;21.31;69.34;98243.13;5021931;28;20217;-66
2021/09/24 05:16:52;;;;;;;10.40;5.27;;;;;;;21.04;69.39;98250.59;5020779;28;20231;-67
2021/09/24 05:19:19;;;;;;;10.17;5.30;;;;;;;21.61;67.96;98251.44;5020700;28;20210;-66
2021/09/24 05:21:47;;;;;;;7.77;5.33;;;;;;;21.83;66.21;98246.69;5022253;28;20225;-66
2021/09/24 05:24:15;;;;;;;10.33;4.77;;;;;;;21.90;65.78;98255.41;5029191;28;20205;-79
2021/09/24 05:26:43;;;;;;;8.93;5.90;;;;;;;21.78;66.37;98258.34;5026036;28;20833;-79
2021/09/24 05:29:10;;;;;;;8.73;5.70;;;;;;;21.88;65.61;98257.56;5024260;28;20676;-82
2021/09/24 05:31:37;;;;;;;10.40;5.70;;;;;;;21.96;65.64;98257.88;5025584;28;20205;-66
2021/09/24 05:34:05;;;;;;;8.93;5.47;;;;;;;21.74;66.04;98257.22;5023996;28;20211;-66
2021/09/24 05:36:33;;;;;;;10.53;5.77;;;;;;;21.89;66.30;98251.06;5022542;28;20260;-67
2021/09/24 05:39:00;;;;;;;8.43;5.53;;;;;;;21.78;67.15;98238.53;5017422;28;20259;-67
2021/09/24 05:41:29;;;;;;;16.70;5.80;;;;;;;22.16;65.06;98249.78;5019063;28;20209;-70
2021/09/24 05:43:56;;;;;;;7.50;5.60;;;;;;;22.04;65.83;98245.66;5024233;28;20195;-71
2021/09/24 05:46:24;;;;;;;13.63;6.23;;;;;;;21.99;65.87;98245.66;5022217;28;20206;-69
2021/09/24 05:48:51;;;;;;;12.00;6.37;;;;;;;22.22;65.06;98254.13;5027922;28;20658;-71
2021/09/24 05:51:18;;;;;;;15.77;6.30;;;;;;;22.47;63.75;98254.19;5023732;28;20216;-69
2021/09/24 05:53:45;;;;;;;28.43;8.17;;;;;;;22.49;64.07;98257.44;5025494;28;20226;-75
2021/09/24 05:56:13;;;;;;;13.73;6.93;;;;;;;22.38;64.69;98254.94;5024613;28;20210;-70
2021/09/24 05:58:41;;;;;;;14.97;6.67;;;;;;;22.13;64.87;98258.44;5024914;28;20242;-69
2021/09/24 06:01:09;;;;;;;12.63;5.57;;;;;;;22.01;65.96;98249.72;5026655;28;20233;-69
2021/09/24 06:03:36;;;;;;;8.33;4.63;;;;;;;22.04;66.59;98257.34;5021098;28;20714;-68
2021/09/24 06:06:03;;;;;;;17.03;10.43;;;;;;;22.56;65.06;98265.34;5027631;28;20211;-70
2021/09/24 06:08:31;;;;;;;12.73;4.97;;;;;;;21.77;67.16;98264.88;5023117;28;20196;-72
2021/09/24 06:10:58;;;;;;;8.67;4.70;;;;;;;22.62;64.38;98269.69;5026199;28;20645;-68
2021/09/24 06:13:26;;;;;;;7.30;5.00;;;;;;;22.93;63.18;98257.72;5020540;28;20224;-68
2021/09/24 06:15:54;;;;;;;5.90;4.13;;;;;;;22.58;64.03;98269.44;5023354;28;20290;-68
2021/09/24 06:18:22;;;;;;;5.23;3.90;;;;;;;22.91;62.91;98260.72;5025059;28;20226;-72
2021/09/24 06:20:49;;;;;;;8.87;4.63;;;;;;;22.48;65.04;98263.16;5022728;28;20202;-71
2021/09/24 06:23:17;;;;;;;8.10;4.50;;;;;;;23.27;61.64;98267.81;5024057;28;20252;-71
2021/09/24 06:25:44;;;;;;;8.70;4.70;;;;;;;23.09;62.42;98270.22;5017740;28;20212;-66
2021/09/24 06:28:11;;;;;;;5.97;4.30;;;;;;;23.37;61.62;98273.22;5022190;28;20212;-66
2021/09/24 06:30:39;;;;;;;10.43;4.50;;;;;;;23.27;60.52;98275.16;5025991;28;20213;-66
2021/09/24 06:33:07;;;;;;;6.57;4.20;;;;;;;23.50;59.61;98271.81;5021065;28;20234;-66
2021/09/24 06:35:35;;;;;;;13.03;5.60;;;;;;;23.79;58.97;98270.06;5019416;28;20209;-66
2021/09/24 06:38:02;;;;;;;13.17;5.00;;;;;;;23.78;59.00;98279.34;5024155;28;20609;-66
2021/09/24 06:40:29;;;;;;;16.10;4.80;;;;;;;24.13;58.44;98271.88;5023454;28;20209;-66
2021/09/24 06:42:57;;;;;;;17.57;5.00;;;;;;;24.11;58.01;98282.22;5023412;28;20543;-66
2021/09/24 06:45:24;;;;;;;18.90;5.43;;;;;;;23.89;59.07;98278.25;5023214;28;20199;-66
2021/09/24 06:47:51;;;;;;;14.67;4.63;;;;;;;24.28;57.18;98279.94;5026337;28;20199;-66
2021/09/24 06:50:20;;;;;;;7.30;4.23;;;;;;;24.83;56.38;98285.03;5019757;28;20215;-66
2021/09/24 06:52:47;;;;;;;15.63;5.03;;;;;;;25.07;55.05;98287.84;5025692;28;20226;-66
2021/09/24 06:55:14;;;;;;;16.83;4.93;;;;;;;25.05;55.42;98288.16;5024339;28;20203;-66
2021/09/24 06:57:42;;;;;;;10.00;4.80;;;;;;;24.99;55.41;98285.75;5027395;28;20222;-66
2021/09/24 07:00:10;;;;;;;12.33;4.77;;;;;;;24.91;55.17;98289.91;5026960;28;20211;-66
2021/09/24 07:02:37;;;;;;;9.87;4.10;;;;;;;25.32;54.81;98291.19;5032308;28;20229;-66
2021/09/24 07:05:05;;;;;;;5.83;4.60;;;;;;;24.97;55.57;98288.75;5028076;28;20203;-66
2021/09/24 07:07:33;;;;;;;6.97;4.53;;;;;;;24.98;55.79;98295.84;5032081;28;20198;-67
2021/09/24 07:10:01;;;;;;;7.27;4.50;;;;;;;25.23;54.35;98290.16;5026965;28;20228;-66
2021/09/24 07:12:28;;;;;;;6.50;4.40;;;;;;;24.97;54.72;98293.38;5029732;28;20231;-66
2021/09/24 07:14:56;;;;;;;6.47;4.70;;;;;;;25.11;54.71;98302.56;5024931;28;20208;-66
2021/09/24 07:17:23;;;;;;;8.30;4.17;;;;;;;25.55;52.85;98311.47;5031227;28;20222;-66
2021/09/24 07:19:50;;;;;;;6.30;4.70;;;;;;;26.04;52.23;98309.28;5030248;28;20702;-66
2021/09/24 07:22:17;;;;;;;7.23;4.40;;;;;;;25.15;53.60;98304.44;5030554;28;20227;-66
2021/09/24 07:24:48;;;;;;;7.67;4.50;;;;;;;26.09;52.57;98303.75;5030402;28;20210;-66
2021/09/24 07:27:16;;;;;;;7.67;4.50;;;;;;;25.54;53.70;98301.63;5032408;28;20206;-66
2021/09/24 07:29:43;;;;;;;5.67;4.50;;;;;;;26.19;52.16;98293.47;5033222;28;20573;-66
2021/09/24 07:32:11;;;;;;;6.47;4.20;;;;;;;26.40;51.06;98300.28;5021352;28;20227;-66
2021/09/24 07:34:42;;;;;;;7.40;4.27;;;;;;;26.15;51.94;98300.63;5031809;28;20211;-66
2021/09/24 07:37:09;;;;;;;7.33;4.13;;;;;;;26.09;52.32;98304.56;5025964;28;20216;-66
2021/09/24 07:39:37;;;;;;;7.80;4.27;;;;;;;26.49;51.58;98300.44;5032582;28;20209;-66
2021/09/24 07:42:06;;;;;;;7.77;3.77;;;;;;;27.15;49.72;98312.84;5025077;28;20243;-66
2021/09/24 07:44:33;;;;;;;6.07;3.83;;;;;;;27.26;48.84;98313.53;5031655;28;20212;-66
2021/09/24 07:47:00;;;;;;;5.53;3.90;;;;;;;27.45;48.48;98317.84;5025950;28;20207;-66
2021/09/24 07:49:28;;;;;;;7.73;4.27;;;;;;;27.43;48.43;98311.03;5024157;28;20202;-66
2021/09/24 07:51:55;;;;;;;6.27;3.90;;;;;;;27.02;49.65;98316.38;5032460;28;20233;-67
2021/09/24 07:54:24;;;;;;;7.27;4.40;;;;;;;27.51;48.01;98327.59;5030999;28;20203;-66
2021/09/24 07:56:52;;;;;;;6.80;3.83;;;;;;;27.45;47.96;98326.06;5032044;28;20234;-66
2021/09/24 07:59:22;;;;;;;6.40;3.60;;;;;;;28.06;46.40;98320.22;5030124;28;20239;-66
2021/09/24 08:01:50;;;;;;;5.37;4.10;;;;;;;28.09;46.48;98322.38;5033373;28;20255;-67
2021/09/24 08:04:17;;;;;;;7.77;3.87;;;;;;;27.13;48.09;98328.78;5024695;28;20228;-66
2021/09/24 08:06:44;;;;;;;8.03;4.20;;;;;;;28.16;45.67;98336.50;5016887;28;20212;-66
2021/09/24 08:09:11;;;;;;;4.87;3.80;;;;;;;28.23;45.22;98336.91;5021166;28;20203;-66
2021/09/24 08:11:39;;;;;;;7.93;4.40;;;;;;;26.71;48.56;98333.56;5019505;28;20210;-68
2021/09/24 08:14:06;;;;;;;5.30;3.87;;;;;;;27.14;47.82;98338.63;5018806;28;20202;-67
2021/09/24 08:16:35;;;;;;;13.03;4.20;;;;;;;27.39;47.23;98346.47;5025262;28;20203;-66
2021/09/24 08:19:02;;;;;;;6.90;4.00;;;;;;;28.19;45.83;98350.44;5012514;28;20230;-67
2021/09/24 08:21:30;;;;;;;7.37;4.13;;;;;;;28.90;43.63;98346.97;5018861;28;20211;-67
2021/09/24 08:23:57;;;;;;;8.70;3.90;;;;;;;29.15;42.86;98357.38;5024574;28;20199;-66
2021/09/24 08:26:25;;;;;;;7.13;3.80;;;;;;;28.86;43.83;98344.03;5021514;28;20198;-72
2021/09/24 08:28:53;;;;;;;6.97;3.97;;;;;;;28.67;43.87;98342.53;5020270;28;20199;-73
2021/09/24 08:31:20;;;;;;;6.40;3.93;;;;;;;28.65;43.88;98340.13;5024156;28;20201;-71
2021/09/24 08:33:49;;;;;;;6.97;3.63;;;;;;;29.19;43.86;98344.66;5018684;28;20647;-71
2021/09/24 08:36:18;;;;;;;6.30;4.10;;;;;;;28.12;45.29;98343.75;5028533;28;20210;-74
2021/09/24 08:38:45;;;;;;;7.57;4.20;;;;;;;29.13;43.02;98335.69;5029423;28;20222;-72
2021/09/24 08:41:13;;;;;;;5.50;3.37;;;;;;;29.27;42.45;98338.38;5018696;28;20209;-71
2021/09/24 08:43:41;;;;;;;7.17;3.97;;;;;;;28.59;43.67;98335.06;5021003;28;20253;-71
2021/09/24 08:46:08;;;;;;;5.33;3.70;;;;;;;28.73;43.98;98338.59;5030170;28;20217;-71
2021/09/24 08:48:36;;;;;;;6.30;3.50;;;;;;;28.13;43.49;98334.38;5033874;28;20191;-72
2021/09/24 08:51:04;;;;;;;5.53;4.10;;;;;;;27.93;44.13;98341.06;5028045;28;20203;-74
2021/09/24 08:53:32;;;;;;;4.90;3.43;;;;;;;28.15;44.31;98335.69;5028465;28;20230;-76
2021/09/24 08:56:00;;;;;;;6.70;3.83;;;;;;;27.83;44.57;98345.97;5019444;28;20199;-72
2021/09/24 08:58:27;;;;;;;6.40;3.77;;;;;;;28.23;43.81;98342.41;5024611;28;20226;-73
2021/09/24 09:00:54;;;;;;;4.87;3.20;;;;;;;28.87;42.86;98348.41;5026440;28;20207;-77
2021/09/24 09:03:22;;;;;;;4.80;3.10;;;;;;;29.62;40.42;98343.00;5009328;28;20365;-74
2021/09/24 09:05:51;;;;;;;7.07;3.13;;;;;;;29.05;41.57;98341.97;5018726;28;20205;-73
2021/09/24 09:08:23;;;;;;;7.13;3.47;;;;;;;29.65;41.21;98340.41;5017078;28;20258;-73
2021/09/24 09:10:55;;;;;;;4.37;3.40;;;;;;;29.23;41.54;98342.91;5021883;28;20200;-73
2021/09/24 09:13:24;;;;;;;5.93;3.17;;;;;;;29.98;40.25;98335.41;5020571;28;21785;-73
2021/09/24 09:15:57;;;;;;;4.87;3.30;;;;;;;30.11;39.94;98338.06;5027253;28;20209;-73
2021/09/24 09:18:26;;;;;;;5.30;3.40;;;;;;;30.47;39.60;98332.34;5008620;28;20224;-73
2021/09/24 09:20:53;;;;;;;5.37;3.30;;;;;;;30.22;39.86;98344.09;5026585;28;20562;-73
2021/09/24 09:23:23;;;;;;;6.93;3.00;;;;;;;30.10;39.45;98344.69;5022363;28;20227;-73
2021/09/24 09:25:52;;;;;;;3.57;2.63;;;;;;;30.72;38.09;98348.13;5025158;28;20214;-73
2021/09/24 09:28:31;;;;;;;5.00;3.17;;;;;;;30.88;37.92;98349.28;5020172;28;20203;-73
2021/09/24 09:30:59;;;;;;;3.93;2.87;;;;;;;29.53;39.76;98347.59;5025983;28;20612;-73
2021/09/24 09:33:28;;;;;;;5.33;2.80;;;;;;;28.07;43.91;98341.09;5017930;28;20230;-73
2021/09/24 09:35:57;;;;;;;4.97;3.30;;;;;;;28.28;45.04;98325.81;5018040;28;20671;-73
2021/09/24 09:38:28;;;;;;;5.70;3.03;;;;;;;27.78;46.15;98329.56;5020389;28;21920;-73
2021/09/24 09:40:58;;;;;;;4.70;3.30;;;;;;;28.21;45.18;98328.97;5025016;28;20209;-73
2021/09/24 09:43:30;;;;;;;4.33;3.10;;;;;;;29.43;43.22;98320.34;5024172;28;20222;-73
2021/09/24 09:46:00;;;;;;;4.77;2.93;;;;;;;30.21;40.32;98339.72;5020535;28;20214;-73
2021/09/24 09:48:27;;;;;;;7.47;3.10;;;;;;;30.62;39.00;98342.91;5022197;28;20195;-73
2021/09/24 09:50:55;;;;;;;25.90;4.03;;;;;;;29.97;39.19;98353.03;5024276;28;20213;-73
2021/09/24 09:53:23;;;;;;;9.50;3.17;;;;;;;29.87;40.16;98347.81;5021625;28;20226;-73
2021/09/24 09:55:53;;;;;;;6.00;2.73;;;;;;;30.60;38.19;98347.94;5023919;28;20231;-73
2021/09/24 09:58:23;;;;;;;6.27;2.93;;;;;;;30.96;37.17;98345.72;5022001;28;20254;-73
2021/09/24 10:00:59;;;;;;;4.67;2.13;;;;;;;30.53;37.65;98342.91;5023842;28;20215;-73
2021/09/24 10:03:35;;;;;;;6.40;2.40;;;;;;;30.30;37.66;98343.31;5018984;28;20245;-73
2021/09/24 10:06:04;;;;;;;3.67;1.90;;;;;;;29.58;39.65;98336.50;5025556;28;20285;-73
2021/09/24 10:08:32;;;;;;;7.40;2.37;;;;;;;29.84;39.60;98327.25;5026399;28;20942;-73
2021/09/24 10:11:07;;;;;;;3.90;2.23;;;;;;;29.32;39.81;98338.25;5031512;28;20242;-74
2021/09/24 10:13:37;;;;;;;5.87;2.33;;;;;;;27.96;43.81;98325.94;5013868;28;20272;-74
2021/09/24 10:16:05;;;;;;;4.87;2.53;;;;;;;30.07;39.54;98331.56;5024564;28;20199;-74
2021/09/24 10:18:33;;;;;;;5.50;2.53;;;;;;;30.16;38.91;98317.84;5025500;28;20702;-74
2021/09/24 10:21:01;;;;;;;3.80;2.67;;;;;;;30.67;37.52;98326.25;5027276;28;20662;-74
2021/09/24 10:23:28;;;;;;;3.80;2.43;;;;;;;30.75;37.65;98320.72;5026412;28;20226;-74
2021/09/24 10:26:14;;;;;;;4.33;2.30;;;;;;;31.14;36.83;98320.56;5023810;28;20200;-74
2021/09/24 10:28:42;;;;;;;3.03;2.43;;;;;;;29.99;38.86;98324.06;5013232;28;20199;-74
2021/09/24 10:31:16;;;;;;;3.17;2.40;;;;;;;28.66;42.59;98313.44;5024440;28;20649;-74
2021/09/24 10:33:52;;;;;;;2.63;2.20;;;;;;;30.41;38.26;98311.59;5028414;28;20230;-73
2021/09/24 10:36:39;;;;;;;4.00;2.40;;;;;;;30.49;37.64;98319.88;5021488;28;20592;-74
2021/09/24 10:39:37;;;;;;;3.43;1.90;;;;;;;30.50;37.52;98321.47;5027885;28;20730;-74
2021/09/24 10:42:47;;;;;;;2.53;1.90;;;;;;;31.46;34.75;98319.22;5022493;28;20231;-74
2021/09/24 10:45:23;;;;;;;3.03;2.27;;;;;;;31.22;34.04;98318.97;4989688;28;20240;-73
2021/09/24 10:48:05;;;;;;;12.03;7.27;;;;;;;30.16;36.29;98315.09;5023572;28;20213;-74
2021/09/24 10:50:57;;;;;;;4.50;2.00;;;;;;;30.59;34.88;98315.97;5020942;28;20202;-74
2021/09/24 10:53:27;;;;;;;3.47;2.30;;;;;;;32.29;33.61;98310.97;5007144;28;20321;-74
2021/09/24 10:56:37;;;;;;;7.23;2.00;;;;;;;32.26;33.13;98308.06;5028536;28;20209;-74
2021/09/24 10:59:29;;;;;;;5.77;1.90;;;;;;;32.88;32.12;98317.28;5026499;28;20236;-74
2021/09/24 11:01:56;;;;;;;3.43;2.10;;;;;;;32.48;31.76;98316.09;5021569;28;20726;-74
2021/09/24 11:04:42;;;;;;;3.50;2.00;;;;;;;30.87;34.56;98304.34;5027963;28;20239;-74
2021/09/24 11:07:10;;;;;;;4.73;2.57;;;;;;;32.10;32.36;98307.81;5025411;28;20650;-74
2021/09/24 11:09:52;;;;;;;2.55;2.10;;;;;;;31.56;32.18;98305.91;5025134;28;20196;-74
2021/09/24 11:12:20;;;;;;;3.93;1.97;;;;;;;31.79;32.74;98303.75;5026226;28;20237;-74
2021/09/24 11:15:09;;;;;;;3.60;2.20;;;;;;;31.83;32.30;98305.50;5020806;28;20285;-74
2021/09/24 11:17:43;;;;;;;4.23;2.03;;;;;;;31.86;32.11;98306.78;5018995;28;20200;-73
2021/09/24 11:20:30;;;;;;;3.75;2.20;;;;;;;32.07;31.73;98307.69;5029257;28;20333;-74
2021/09/24 11:22:58;;;;;;;2.63;1.80;;;;;;;32.38;30.17;98305.44;5021032;28;20226;-74
2021/09/24 11:25:25;;;;;;;3.30;1.70;;;;;;;31.84;31.68;98306.31;5002331;28;20293;-74
2021/09/24 11:27:54;;;;;;;7.35;2.55;;;;;;;31.36;31.91;98305.81;5022664;28;20209;-73
2021/09/24 11:30:25;;;;;;;2.30;1.83;;;;;;;31.74;31.26;98298.41;5015980;28;20198;-74
2021/09/24 11:32:55;;;;;;;3.00;1.87;;;;;;;31.97;31.58;98288.72;5021628;28;20227;-73
2021/09/24 11:35:30;;;;;;;4.30;2.23;;;;;;;32.52;31.15;98292.13;5029190;28;20213;-73
2021/09/24 11:38:16;;;;;;;5.90;2.08;;;;;;;32.47;31.13;98290.41;5016951;28;20215;-74
2021/09/24 11:40:50;;;;;;;4.22;2.00;;;;;;;32.79;30.27;98283.34;5015472;28;20635;-74